Time,TemperatureF,DewpointF,PressureIn,WindDirection,WindDirectionDegrees,WindSpeedMPH,WindSpeedGustMPH,Humidity,HourlyPrecipIn,Conditions,Clouds,dailyrainin,SolarRadiationWatts/m^2,SoftwareType,DateUTC
2013-03-27 00:00:00,38.0,26.0,29.90,NW,306,3.0,-999.0,61,-99.99,,,-99.99,0.000000,,2013-03-27 04:00:00,
2013-03-27 00:53:00,38.0,26.0,29.90,NW,306,3.0,-999.0,61,-99.99,,,-99.99,0.000000,,2013-03-27 04:53:00,
2013-03-27 04:00:00,37.0,25.0,29.91,West,265,6.0,-999.0,63,-99.99,,,-99.99,0.000000,,2013-03-27 08:00:00,
2013-03-27 04:52:00,37.0,25.0,29.91,West,265,6.0,-999.0,63,-99.99,,,-99.99,0.000000,,2013-03-27 08:52:00,
2013-03-27 05:00:00,36.0,25.0,29.91,West,267,5.0,-999.0,62,-99.99,,,-99.99,0.000000,,2013-03-27 09:00:00,
2013-03-27 05:52:00,36.0,25.0,29.91,West,267,5.0,-999.0,62,-99.99,,,-99.99,0.000000,,2013-03-27 09:52:00,
2013-03-27 06:00:00,36.0,23.0,29.92,West,271,5.0,-999.0,59,-99.99,,,-99.99,0.000000,,2013-03-27 10:00:00,
2013-03-27 06:53:00,36.0,23.0,29.92,West,271,5.0,-999.0,59,-99.99,,,-99.99,0.000000,,2013-03-27 10:53:00,
2013-03-27 07:00:00,36.0,23.0,29.93,West,265,7.0,-999.0,60,-99.99,,,-99.99,0.200000,,2013-03-27 11:00:00,
2013-03-27 07:53:00,36.0,23.0,29.93,West,265,7.0,-999.0,60,-99.99,,,-99.99,0.200000,,2013-03-27 11:53:00,
2013-03-27 08:00:00,37.0,22.0,29.95,West,274,5.0,-999.0,53,-99.99,,,-99.99,47.459999,,2013-03-27 12:00:00,
2013-03-27 08:52:00,37.0,22.0,29.95,West,274,5.0,-999.0,53,-99.99,,,-99.99,47.459999,,2013-03-27 12:52:00,
2013-03-27 09:00:00,40.0,21.0,29.97,West,265,4.0,-999.0,47,-99.99,,,-99.99,203.919998,,2013-03-27 13:00:00,
2013-03-27 09:53:00,40.0,21.0,29.97,West,265,4.0,-999.0,47,-99.99,,,-99.99,203.919998,,2013-03-27 13:53:00,
2013-03-27 10:00:00,43.0,23.0,29.97,WNW,296,6.0,-999.0,45,-99.99,,,-99.99,375.790009,,2013-03-27 14:00:00,
2013-03-27 10:52:00,43.0,23.0,29.97,WNW,296,6.0,-999.0,45,-99.99,,,-99.99,375.790009,,2013-03-27 14:52:00,
2013-03-27 11:00:00,44.0,24.0,29.97,NW,316,9.0,-999.0,45,-99.99,,,-99.99,531.080017,,2013-03-27 15:00:00,
2013-03-27 11:53:00,44.0,24.0,29.97,NW,316,9.0,-999.0,45,-99.99,,,-99.99,531.080017,,2013-03-27 15:53:00,
2013-03-27 12:00:00,47.0,23.0,29.97,WNW,297,12.0,-999.0,38,-99.99,,,-99.99,652.799988,,2013-03-27 16:00:00,
2013-03-27 12:52:00,47.0,23.0,29.97,WNW,297,12.0,-999.0,38,-99.99,,,-99.99,652.799988,,2013-03-27 16:52:00,
2013-03-27 15:00:00,47.0,19.0,29.96,WNW,301,11.0,-999.0,32,-99.99,,,-99.99,375.450012,,2013-03-27 19:00:00,
2013-03-27 15:52:00,47.0,19.0,29.96,WNW,301,11.0,-999.0,32,-99.99,,,-99.99,375.450012,,2013-03-27 19:52:00,
2013-03-27 17:00:00,45.0,24.0,29.97,NW,311,15.0,-999.0,43,-99.99,,,-99.99,434.269989,,2013-03-27 21:00:00,
2013-03-27 17:52:00,45.0,24.0,29.97,NW,311,15.0,-999.0,43,-99.99,,,-99.99,434.269989,,2013-03-27 21:52:00,
2013-03-27 18:00:00,46.0,17.0,29.97,WNW,300,12.0,-999.0,31,-99.99,,,-99.99,289.079987,,2013-03-27 22:00:00,
2013-03-27 18:53:00,46.0,17.0,29.97,WNW,300,12.0,-999.0,31,-99.99,,,-99.99,289.079987,,2013-03-27 22:53:00,